WetterOnline ( https://www.wetteronline.de )

Wetter aktuell Lutherstadt Wittenberg

Aktuelles Wetter: Wittenberg (106m)

6-stündlich | Neueste Meldungen
Ortszeit Temperatur Wetter
Fr, 02.12. 7:00 0.0° C leichter Schneefall
Fr, 02.12. 1:00 -0.1° C leichter Schneefall
Do, 01.12. 19:00 -0.5° C leichter Schneefall
Do, 01.12. 13:00 0.0° C leichter Schneefall
Do, 01.12. 7:00 -0.4° C Nebel
Do, 01.12. 1:00 0.1° C bedeckt
Mi, 30.11. 19:00 1.1° C bedeckt
Mi, 30.11. 13:00 4.7° C bedeckt
Ortszeit Temperatur Wetter
Fr, 02.12. 10:00 0.2° C leichter Schneefall
Fr, 02.12. 9:50 0.2° C leichter Schneefall
Fr, 02.12. 9:40 0.1° C Schneefall
Fr, 02.12. 9:30 0.0° C leichter Schneefall
Fr, 02.12. 9:20 0.0° C leichter Schneefall
Fr, 02.12. 9:10 0.0° C leichter Schneefall
Fr, 02.12. 9:00 0.0° C leichter Schneefall
Fr, 02.12. 8:30 0.0° C leichter Schneefall
Fr, 02.12. 8:00 0.0° C leichter Schneefall
Fr, 02.12. 7:30 0.0° C leichter Schneefall
Fr, 02.12. 7:00 0.0° C leichter Schneefall
Ortszeit Relative Feuchte Sichtweite
Fr, 02.12. 7:00 94% 2.3 km
Fr, 02.12. 1:00 94% 1.7 km
Do, 01.12. 19:00 93% 2.0 km
Do, 01.12. 13:00 90% 4.3 km
Do, 01.12. 7:00 96% 2.3 km
Do, 01.12. 1:00 94% 1.8 km
Mi, 30.11. 19:00 91% 3.7 km
Mi, 30.11. 13:00 75% 19 km
Ortszeit Relative Feuchte Sichtweite
Fr, 02.12. 10:00 92% 2.2 km
Fr, 02.12. 9:50 92% -
Fr, 02.12. 9:40 92% -
Fr, 02.12. 9:30 92% 3.2 km
Fr, 02.12. 9:20 92% -
Fr, 02.12. 9:10 92% -
Fr, 02.12. 9:00 93% 2.2 km
Fr, 02.12. 8:30 94% 1.8 km
Fr, 02.12. 8:00 93% 3.3 km
Fr, 02.12. 7:30 94% 1.6 km
Fr, 02.12. 7:00 94% 2.3 km
Ortszeit Niederschlagsmenge Niederschlagsart
Fr, 02.12. 7:00 4 l/m2 in 12 Std. Schnee
Fr, 02.12. 1:00 1 l/m2 in 6 Std. Schnee
Do, 01.12. 19:00 0.9 l/m2 in 12 Std. Schnee
Do, 01.12. 13:00 0.1 l/m2 in 6 Std. Schnee
Do, 01.12. 7:00 0.0 l/m2 in 12 Std. -
Do, 01.12. 1:00 0.0 l/m2 in 6 Std. -
Mi, 30.11. 19:00 0.0 l/m2 in 12 Std. -
Mi, 30.11. 13:00 0.0 l/m2 in 6 Std. -
Ortszeit Niederschlagsmenge Niederschlagsart
Fr, 02.12. 10:00 0.2 l/m2 in 1 Std. Schnee
Fr, 02.12. 9:50 keine Meldung -
Fr, 02.12. 9:40 keine Meldung -
Fr, 02.12. 9:30 <0.05 l/m2 in 1 Std. -
Fr, 02.12. 9:20 keine Meldung -
Fr, 02.12. 9:10 keine Meldung -
Fr, 02.12. 9:00 0.4 l/m2 in 1 Std. Schnee
Fr, 02.12. 8:30 0.1 l/m2 in 1 Std. -
Fr, 02.12. 8:00 0.4 l/m2 in 1 Std. Schnee
Fr, 02.12. 7:30 0.2 l/m2 in 1 Std. -
Fr, 02.12. 7:00 0.3 l/m2 in 1 Std. Schnee
Ortszeit Stärke Spitze Richtung
km/h Bft. km/h Grad Sektor
Fr, 02.12. 7:00 11 2 22 50° NO
Fr, 02.12. 1:00 9 2 17 40° NO
Do, 01.12. 19:00 7 2 17 50° NO
Do, 01.12. 13:00 9 2 17 60° NO
Do, 01.12. 7:00 7 2 22 90° O
Do, 01.12. 1:00 11 2 25 60° NO
Mi, 30.11. 19:00 9 2 22 100° O
Mi, 30.11. 13:00 9 2 22 120° SO
Ortszeit Stärke Spitze Richtung
km/h Bft. km/h Grad Sektor
Fr, 02.12. 10:00 13 3 24 50° NO
Fr, 02.12. 9:50 13 3 - 50° NO
Fr, 02.12. 9:40 13 3 - 50° NO
Fr, 02.12. 9:30 13 3 22 50° NO
Fr, 02.12. 9:20 13 3 - 50° NO
Fr, 02.12. 9:10 14 3 - 50° NO
Fr, 02.12. 9:00 13 3 22 50° NO
Fr, 02.12. 8:30 11 2 22 50° NO
Fr, 02.12. 8:00 11 2 24 50° NO
Fr, 02.12. 7:30 11 2 22 50° NO
Fr, 02.12. 7:00 11 2 22 50° NO
Ortszeit Untergrenze Bedeckung Gattung
total tief tief mittel hoch
Fr, 02.12. 7:00 180 m 7/8 7/8 - - -
Fr, 02.12. 1:00 120 m 8/8 8/8 - - -
Do, 01.12. 19:00 150 m 8/8 8/8 - - -
Do, 01.12. 13:00 120 m 8/8 8/8 - - -
Do, 01.12. 7:00 60 m 8/8 8/8 - - -
Do, 01.12. 1:00 60 m 8/8 8/8 - - -
Mi, 30.11. 19:00 120 m 8/8 8/8 - - -
Mi, 30.11. 13:00 2400 m 8/8 8/8 - - -
Ortszeit Bedeckungsgrad in Achtel und Wolkenuntergrenze
Fr, 02.12. 10:00 2(210m) 6(480m) 8(630m)
Fr, 02.12. 9:50 2(210m) 6(480m) 8(630m)
Fr, 02.12. 9:40 8
Fr, 02.12. 9:30 2(210m) 6(570m) 7(750m)
Fr, 02.12. 9:20 2(210m) 6(570m) 7(750m)
Fr, 02.12. 9:10 8
Fr, 02.12. 9:00 2(210m) 7(570m)
Fr, 02.12. 8:30 5(210m) 8(750m)
Fr, 02.12. 8:00 7(210m) 7(750m)
Fr, 02.12. 7:30 6(210m) 7(750m) 7(900m)
Fr, 02.12. 7:00 6(180m) 7(570m) 7(810m)
Ortszeit Luftdruck NN (hPa) Tendenz (hPa in 3 Std.)
Fr, 02.12. 7:00 1026 - 0,6
Fr, 02.12. 1:00 1027 - 0,8
Do, 01.12. 19:00 1028 + 0,1
Do, 01.12. 13:00 1029 - 0,6
Do, 01.12. 7:00 1028 + 0,5
Do, 01.12. 1:00 1028 - 0,1
Mi, 30.11. 19:00 1027 + 1,3
Mi, 30.11. 13:00 1025 + 0,3
Ortszeit Luftdruck NN (hPa) Tendenz (hPa in 3 Std.)
Fr, 02.12. 10:00 1026 - 0,1
Fr, 02.12. 9:50 1026 keine Meldung
Fr, 02.12. 9:40 1026 keine Meldung
Fr, 02.12. 9:30 1026 0,0
Fr, 02.12. 9:20 1026 keine Meldung
Fr, 02.12. 9:10 1026 keine Meldung
Fr, 02.12. 9:00 1026 0,0
Fr, 02.12. 8:30 1026 0,0
Fr, 02.12. 8:00 1026 - 0,2
Fr, 02.12. 7:30 1026 - 0,6
Fr, 02.12. 7:00 1026 - 0,6
Ortszeit Schneehöhe (cm)
Fr, 02.12. 7:00 4
Fr, 02.12. 1:00 2
Do, 01.12. 19:00 0
Do, 01.12. 13:00 0
Do, 01.12. 7:00 0
Do, 01.12. 1:00 0
Mi, 30.11. 19:00 0
Mi, 30.11. 13:00 0
Ortszeit Schneehöhe (cm)
Fr, 02.12. 10:00 6
Fr, 02.12. 9:50 6
Fr, 02.12. 9:40 6
Fr, 02.12. 9:30 6
Fr, 02.12. 9:20 6
Fr, 02.12. 9:10 6
Fr, 02.12. 9:00 6
Fr, 02.12. 8:30 5
Fr, 02.12. 8:00 5
Fr, 02.12. 7:30 5
Fr, 02.12. 7:00 4
Link zu dieser Seite / Seite empfehlen

Das Wetter in ...